Portada
METAR-TAF:

METAR-TAF

Aeroports :

Bamako, Mali

latitud: 12-32N, longitud: 007-57W, altitud: 380 m

Observació

L'informe es va fer fa 27 minuts, a les 09:30 UTC
Vent 5 kt del Sud/Sud-Oest, variant entre Sud/Sud-Est i Oest/Sud-Oest
Temperatura 28°C
Humitat 74%
Pressió 1015 hPa
Visibilitat 10 km o més
Escasses núvols a una alçada de 2000 ft

METAR: GABS 230930Z 20005KT 160V250 9999 FEW020 28/23 Q1015 NOSIG

Hora: 09:57 (09:57 UTC)

Pronòstic

L'informe es va fer fa 4 hores i 27 minuts, a les 05:30 UTC
Pronòstic vàlid del 23 a les 06 UTC al 24 a les 12 UTC
Vent 8 kt del Sud/Sud-Oest
Visibilitat 10 km o més
Escasses núvols a una alçada de 2300 ft
Probabilitat 40% :
Temporalment
l' 23 a les 13 UTC al 23 a les 18 UTC
Visibilitat: 4000 m
Núvols disperses a una alçada de 2300 ft
Escasses núvols a una alçada de 2600 ft, Cumulonimbus.
tempesta, xàfecs de pluja

TAF: GABS 230530Z 2306/2412 20008KT 9999 FEW023 PROB40 TEMPO 2313/2318 4000 TS SHRA SCT023 FEW026CB

Observacions i pronòstics meteorològics de més de 4000 aeroports (METAR i TAF).

Les estacions disponibles són els punts grocs i vermells al mapa.

Posi el ratolí al punt desitjat per veure el nom de l'estació.

Feu clic per veure les observacions i els pronòstics meteorològics.

Per canviar el mapa: feu clic els botons verds amb una creu de color negre per apropar; al botó verd amb un guió per allunyar la imatge; o en les fletxes verdes per a mapes adjacents.


METAR-TAF: